createdAt,value
2017-10-08T09:52:24.306Z,10.80
2017-10-08T09:54:50.391Z,22.90
2017-10-08T09:57:16.682Z,23.00
2017-10-08T09:59:42.736Z,23.00
2017-10-08T10:02:08.775Z,23.00
2017-10-08T10:04:34.860Z,23.00
2017-10-08T10:07:00.908Z,23.00
2017-10-08T10:09:26.979Z,23.20
2017-10-08T10:11:53.021Z,23.60
2017-10-08T10:14:19.834Z,24.20
2017-10-08T10:16:45.882Z,24.20
2017-10-08T10:19:11.953Z,24.40
2017-10-08T10:21:38.039Z,24.80
2017-10-08T10:24:04.080Z,25.10
2017-10-08T10:26:30.873Z,25.40
2017-10-08T10:28:56.949Z,25.40
2017-10-08T10:31:23.025Z,25.40
2017-10-08T10:33:49.103Z,25.40
2017-10-08T10:36:15.155Z,25.50
2017-10-08T10:38:41.968Z,24.60
2017-10-08T10:41:08.022Z,24.50
2017-10-08T10:43:34.064Z,25.00
2017-10-08T10:46:00.129Z,25.30
2017-10-08T10:48:26.173Z,25.80
2017-10-08T10:53:20.047Z,26.50
2017-10-08T10:55:46.120Z,28.30
2017-10-08T10:58:12.165Z,29.20
2017-10-08T11:00:38.221Z,30.00
2017-10-08T11:03:04.266Z,30.00
2017-10-08T11:05:30.321Z,29.60
2017-10-08T11:07:56.749Z,28.80
2017-10-08T11:10:22.812Z,27.10
2017-10-08T11:12:48.889Z,26.10
2017-10-08T11:15:14.946Z,25.70
2017-10-08T11:17:41.774Z,26.10
2017-10-08T11:20:08.580Z,25.60
2017-10-08T11:22:34.645Z,25.60
2017-10-08T11:27:28.553Z,27.00
2017-10-08T11:29:54.604Z,27.30
2017-10-08T11:32:20.749Z,27.00
2017-10-08T11:34:46.807Z,27.10
2017-10-08T11:37:13.606Z,25.80
2017-10-08T11:39:40.046Z,25.80
2017-10-08T11:42:06.145Z,24.30
2017-10-08T11:44:32.201Z,23.70
2017-10-08T11:46:58.253Z,23.20
2017-10-08T11:49:24.321Z,22.80
2017-10-08T11:51:50.406Z,23.10
2017-10-08T11:54:17.233Z,23.10
2017-10-08T11:56:44.041Z,22.60
2017-10-08T11:59:10.077Z,22.60
2017-10-08T12:01:36.190Z,21.70
2017-10-08T12:04:02.258Z,20.80
2017-10-08T12:06:28.314Z,20.20
2017-10-08T12:08:54.376Z,20.00
2017-10-08T12:11:20.429Z,20.30
2017-10-08T12:13:46.489Z,20.50
2017-10-08T12:16:12.552Z,21.10
2017-10-08T12:18:38.622Z,22.00
2017-10-08T13:02:57.607Z,22.70
2017-10-08T13:05:24.385Z,23.40
2017-10-08T13:07:50.464Z,23.40
2017-10-08T13:10:16.525Z,23.20
2017-10-08T13:12:42.545Z,22.70
